This is the latest recevied weather packets stored in our database for station/object GW1490. If no packets are shown the sender has not sent any weather packets the latest 10 day(s).
| Time | Temp. | Humidity | Pressure | Rain* | Wind** | Luminosity | Snow |
|---|---|---|---|---|---|---|---|
| 1777695875 | 4.44° C | 98% | 999.3 hPa | 0 mm | - | - | - |
| 1777691175 | 6.11° C | 93% | 998.9 hPa | 0 mm | - | - | - |
| 1777681112 | 11.67° C | 71% | 996.9 hPa | 0 mm | - | - | - |
| 1777680766 | 11.67° C | 67% | 996.6 hPa | 0 mm | - | - | - |
| 1777679693 | 12.22° C | 72% | 996.2 hPa | 0 mm | - | - | - |
| 1777678973 | 12.22° C | 70% | 995.5 hPa | 0 mm | - | - | - |
| 1777674654 | 13.33° C | 66% | 995.2 hPa | 0 mm | - | - | - |
| 1777671758 | 12.78° C | 68% | 995.2 hPa | 0 mm | - | - | - |
| 1777661321 | 16.11° C | 60% | 993.9 hPa | 0 mm | - | - | - |
| 1777660943 | 16.11° C | 55% | 993.9 hPa | 0 mm | - | - | - |
| 1777658813 | 17.22° C | 50% | 993.9 hPa | 0 mm | - | - | - |
| 1777653757 | 17.22° C | 50% | 993.9 hPa | 0 mm | - | - | - |
| 1777646530 | 13.33° C | 65% | 995.2 hPa | 0 mm | - | - | - |
| 1777645821 | 13.33° C | 69% | 995.5 hPa | 0 mm | - | - | - |
| 1777645450 | 13.33° C | 74% | 995.2 hPa | 0 mm | - | - | - |
| 1777643291 | 10.56° C | 85% | 995.9 hPa | 0 mm | - | - | - |
| 1777639339 | 6.11° C | 99% | 995.5 hPa | 0 mm | - | - | - |
| 1777638989 | 6.11° C | 99% | 995.9 hPa | 0 mm | - | - | - |
| 1777638616 | 5.56° C | 99% | 995.9 hPa | 0 mm | - | - | - |
| 1777630365 | 3.89° C | 99% | 996.6 hPa | 0 mm | - | - | - |
| 1777629263 | 3.89° C | 99% | 996.6 hPa | 0 mm | - | - | - |
| 1777628901 | 3.89° C | 99% | 996.9 hPa | 0 mm | - | - | - |
| 1777626758 | 4.44° C | 99% | 996.9 hPa | 0 mm | - | - | - |
| 1777625668 | 4.44° C | 99% | 996.6 hPa | 0 mm | - | - | - |
| 1777624612 | 4.44° C | 99% | 996.9 hPa | 0 mm | - | - | - |
* Rain since midnight (hover to see other rain measurements)
** Current wind speed in m/s (hover to see current wind gust speed)